YBEV weather

Beverley Airport
Western Australia, Australia

Public forecast

Using degrees Celsius for public forecast. Weather courtesy of forecast.io.

METAR (pilot weather report)

Closest report is Perth International Airport, 51.4 nm (95.1 km) WNW. Retrieved 2019/04/25 11:30 UTC (0 seconds ago):

YPPH 251130Z 12008KT CAVOK 19/08 Q1023 NOSIG

TAF (pilot weather forecast)

Forecast is more than 12 hours old.

Closest forecast is Perth International Airport, 51.4 nm (95.1 km) WNW. Retrieved 2019/04/24 00:00 UTC (1 day ago):

TAF YPPH 242258Z 2500/2606 09008KT CAVOK FM250400 09010KT 9999 FU NSC FM251200 12010KT CAVOK FM251600 08016G24KT CAVOK FM260000 06016G24KT CAVOK FM260400 06012KT CAVOK